Beechy, Canada
Current Conditions -  °F | °C
As of 7:04 AM on Thursday 30 Oct 2014 (Local Time) from CYYN Reporting Station
Haze Haze  
Wind Chill: 23°   Ceiling: 300
Heat Index: 30°   Visibility: 2.5mi
Dew Point: 30°   Wind: 8mph
Humidity: 100%   Direction: 90°E
Pressure: 30.31"   Gusts: NA
Location:  50.88°N, 107.38°W
Report Text: CYYN 301304Z AUTO 09007KT 2 1/2SM BR OVC003 M01/M01 A3031 RMK SLP298
Loading
Personal Weather Stations






























Interactive Weather Map
Tropical Storm Tracking
New forecast layout! Learn more

10-Day Weather Forecast

Advertisements
Track Severe Weather on mobile